Airfield :
LOGIN :

Register | Disclaimer

   EN    FR    IT 

 










Legend :    VFR   Marginal VFR   IFR   Intensive IFR   Very Intensive IFR
Visi :
Ceiling :
>= 8 km
>= 3000ft
5 to 8 km
1000 to 3000 ft
1500m to 5 km
500 to 1000 ft
800 to 1500m
200 to 500 ft
< 800m
< 200 ft
Symbols :   Thunderstorms  Fog  Heavy snow  Heavy precipitations  Wind > 20 kt
SIGMETs :     Misc.  Thunderstorms  Icing  Turbulence  Mountain Waves  Volcanic Ashes







- Airport Elevation : 84 ft
- Download approach charts


LFBC - Cazaux

CURRENT METAR :
  • 160800Z AUTO VRB02KT CAVOK 12/12 Q1017 TEMPO BKN003

EXPIRED METARs :
  • 160730Z AUTO VRB02KT 8000 NSC 11/11 Q1016 TEMPO BKN003
  • 160700Z AUTO 36003KT 7000 NSC 09/09 Q1016 TEMPO 0500 FG VV///
  • 160630Z AUTO 36002KT 7000 NSC 09/09 Q1016 TEMPO 0500 FG VV///
  • 160600Z AUTO 31003KT 9000 NSC 08/08 Q1015 TEMPO 0500 FG VV///
  • 160530Z AUTO VRB02KT 6000 NSC 07/07 Q1015 TEMPO 0500 FG VV///

TAF AMD TAF LFBC
Valid from the 16 at 04:00 until the 17 at 03:00 UTC


160545Z 1604/1703 02002KT 2000 BR NSC
TEMPO 1605/1608 0500 FG VV///
BECMG 1608/1609 7000 NSW BKN003
BECMG 1609/1611 FEW003 SCT030
BECMG 1612/1614 30012KT
BECMG 1618/1620 02002KT
TEMPO 1620/1703 3000 BR
PROB40
TEMPO 1700/1703 0500 FG
No reported NOTAMs for that airfield.



MET'MAP, your aeronautical weather chart ! - Copyright ORBIFLY December 2007 - Disclaimer

ORBIFLY MET'MAP TEAM :

Programming & Development : Alexandra Zaïnal
Concept & Development : Baudouin d'Aumeries
Co-Development & Prog : Marc-Olivier Méhu
Technical & hardware support : Manuel Goepfert

Contact : metmap@orbifly.com




SOURCES & CREDITS :

   NOAA